createdAt,value
2022-11-20T00:01:19.344Z,20.30
2022-11-20T00:03:46.817Z,20.90
2022-11-20T00:06:16.258Z,20.88
2022-11-20T00:08:43.627Z,20.90
2022-11-20T00:11:16.055Z,19.60
2022-11-20T00:13:48.066Z,20.67
2022-11-20T00:16:17.016Z,22.38
2022-11-20T00:18:44.853Z,21.00
2022-11-20T00:21:14.499Z,20.83
2022-11-20T00:23:42.447Z,23.50
2022-11-20T00:26:11.211Z,20.17
2022-11-20T00:28:38.262Z,21.45
2022-11-20T00:31:23.354Z,20.70
2022-11-20T00:33:50.482Z,22.05
2022-11-20T00:36:23.134Z,19.80
2022-11-20T00:38:54.555Z,21.23
2022-11-20T00:41:21.831Z,21.98
2022-11-20T00:43:48.652Z,21.20
2022-11-20T00:46:17.920Z,21.77
2022-11-20T00:48:45.997Z,20.63
2022-11-20T00:51:16.154Z,20.98
2022-11-20T00:53:43.692Z,24.90
2022-11-20T00:56:15.655Z,21.95
2022-11-20T00:58:44.479Z,21.45
2022-11-20T01:01:17.339Z,24.38
2022-11-20T01:03:46.159Z,23.95
2022-11-20T01:06:19.375Z,21.40
2022-11-20T01:08:46.623Z,22.05
2022-11-20T01:11:19.391Z,21.90
2022-11-20T01:13:47.784Z,21.17
2022-11-20T01:16:20.201Z,22.60
2022-11-20T01:18:49.522Z,22.15
2022-11-20T01:21:19.279Z,21.40
2022-11-20T01:23:46.903Z,21.70
2022-11-20T01:26:20.202Z,21.30
2022-11-20T01:28:47.178Z,20.73
2022-11-20T01:31:18.004Z,20.80
2022-11-20T01:33:46.631Z,20.85
2022-11-20T01:36:14.686Z,21.75
2022-11-20T01:38:42.100Z,20.23
2022-11-20T01:41:10.121Z,20.85
2022-11-20T01:43:36.789Z,21.67
2022-11-20T01:46:16.288Z,23.02
2022-11-20T01:48:55.516Z,22.38
2022-11-20T01:51:29.182Z,20.65
2022-11-20T01:54:00.535Z,20.95
2022-11-20T01:56:28.939Z,20.98
2022-11-20T01:58:59.376Z,20.73
2022-11-20T02:01:26.383Z,19.55
2022-11-20T02:03:54.497Z,20.10
2022-11-20T02:06:26.812Z,19.85
2022-11-20T02:08:53.684Z,20.80
2022-11-20T02:11:20.459Z,21.80
2022-11-20T02:13:47.781Z,19.92
2022-11-20T02:16:27.077Z,24.10
2022-11-20T02:18:56.056Z,19.70
2022-11-20T02:21:31.111Z,20.67
2022-11-20T02:24:13.602Z,22.90
2022-11-20T02:26:54.359Z,20.92
2022-11-20T02:29:40.947Z,21.75
2022-11-20T02:32:07.707Z,19.20
2022-11-20T02:34:34.390Z,19.98
2022-11-20T02:37:01.232Z,20.38
2022-11-20T02:39:29.447Z,20.58
2022-11-20T02:41:56.971Z,18.67
2022-11-20T02:44:23.816Z,19.40
2022-11-20T02:46:50.474Z,19.63
2022-11-20T02:49:18.108Z,21.10
2022-11-20T02:51:44.998Z,21.38
2022-11-20T02:54:11.727Z,20.95
2022-11-20T02:56:40.121Z,20.95
2022-11-20T02:59:07.487Z,21.58
2022-11-20T03:01:34.673Z,20.83
2022-11-20T03:04:01.488Z,19.35
2022-11-20T03:06:28.499Z,19.83
2022-11-20T03:08:55.237Z,19.33
2022-11-20T03:11:21.941Z,18.92
2022-11-20T03:13:48.711Z,19.27
2022-11-20T03:16:21.265Z,19.23
2022-11-20T03:18:48.124Z,20.23
2022-11-20T03:21:16.147Z,20.77
2022-11-20T03:23:42.970Z,21.05
2022-11-20T03:26:13.367Z,19.48
2022-11-20T03:28:40.147Z,19.38
2022-11-20T03:31:15.152Z,18.52
2022-11-20T03:33:42.953Z,20.10
2022-11-20T03:36:12.797Z,20.15
2022-11-20T03:38:39.926Z,20.85
2022-11-20T03:41:18.786Z,22.30
2022-11-20T03:43:50.707Z,19.17
2022-11-20T03:48:48.775Z,18.10
2022-11-20T03:51:20.691Z,19.48
2022-11-20T03:53:48.772Z,23.55
2022-11-20T03:56:17.617Z,20.00
2022-11-20T03:58:44.725Z,21.55
2022-11-20T04:01:14.874Z,19.40
2022-11-20T04:03:43.189Z,18.27
2022-11-20T04:06:13.215Z,21.60
2022-11-20T04:08:40.951Z,21.83
2022-11-20T04:11:20.216Z,20.30
2022-11-20T04:13:49.049Z,21.17
2022-11-20T04:16:16.342Z,21.05
2022-11-20T04:18:44.310Z,22.48
2022-11-20T04:21:11.959Z,19.88
2022-11-20T04:23:39.688Z,19.10
2022-11-20T04:26:09.759Z,21.15
2022-11-20T04:28:37.040Z,20.08
2022-11-20T04:31:06.712Z,20.88
2022-11-20T04:33:34.657Z,21.98
2022-11-20T04:36:06.879Z,22.45
2022-11-20T04:38:33.870Z,21.52
2022-11-20T04:41:16.503Z,22.88
2022-11-20T04:43:48.395Z,21.38
2022-11-20T04:48:41.945Z,23.38
2022-11-20T04:51:08.629Z,21.98
2022-11-20T04:53:35.277Z,22.33
2022-11-20T04:56:03.422Z,21.95
2022-11-20T04:58:30.508Z,21.42
2022-11-20T05:01:15.487Z,20.95
2022-11-20T05:03:43.575Z,22.67
2022-11-20T05:06:15.535Z,22.55
2022-11-20T05:08:42.551Z,21.42
2022-11-20T05:11:12.255Z,22.05
2022-11-20T05:13:39.577Z,24.35
2022-11-20T05:16:09.307Z,21.00
2022-11-20T05:18:37.384Z,22.60
2022-11-20T05:21:04.480Z,22.00
2022-11-20T05:23:32.585Z,22.55
2022-11-20T05:25:59.989Z,23.55
2022-11-20T05:28:28.717Z,22.83
2022-11-20T05:30:55.600Z,22.38
2022-11-20T05:33:22.953Z,21.60
2022-11-20T05:35:49.926Z,24.30
2022-11-20T05:38:16.947Z,22.10
2022-11-20T05:40:43.767Z,21.35
2022-11-20T05:43:10.602Z,21.73
2022-11-20T05:45:37.312Z,23.77
2022-11-20T05:48:04.391Z,22.08
2022-11-20T05:50:31.419Z,24.98
2022-11-20T05:53:01.334Z,21.60
2022-11-20T05:55:28.570Z,26.40
2022-11-20T05:57:55.947Z,21.60
2022-11-20T06:00:23.430Z,22.23
2022-11-20T06:02:50.440Z,20.75
2022-11-20T06:05:17.383Z,21.85
2022-11-20T06:07:44.026Z,22.30
2022-11-20T06:10:11.574Z,26.13
2022-11-20T06:12:39.359Z,21.58
2022-11-20T06:15:06.887Z,23.92
2022-11-20T06:17:33.579Z,23.08
2022-11-20T06:20:00.321Z,23.10
2022-11-20T06:22:26.967Z,23.05
2022-11-20T06:24:53.676Z,23.48
2022-11-20T06:27:20.332Z,22.52
2022-11-20T06:29:47.027Z,21.40
2022-11-20T06:32:13.679Z,22.98
2022-11-20T06:34:40.317Z,24.42
2022-11-20T06:37:06.984Z,25.55
2022-11-20T06:39:33.672Z,25.15
2022-11-20T06:42:00.314Z,25.40
2022-11-20T06:44:27.223Z,21.80
2022-11-20T06:46:53.931Z,23.20
2022-11-20T06:49:21.063Z,24.67
2022-11-20T06:51:48.053Z,21.58
2022-11-20T06:54:14.790Z,23.10
2022-11-20T06:56:41.398Z,21.13
2022-11-20T06:59:08.456Z,21.90
2022-11-20T07:01:36.230Z,20.20
2022-11-20T07:04:04.173Z,22.63
2022-11-20T07:06:31.212Z,22.27
2022-11-20T07:08:58.127Z,22.35
2022-11-20T07:11:24.867Z,20.90
2022-11-20T07:13:51.527Z,21.58
2022-11-20T07:16:18.325Z,21.08
2022-11-20T07:18:50.221Z,21.85
2022-11-20T07:21:17.733Z,21.55
2022-11-20T07:23:44.431Z,21.55
2022-11-20T07:26:12.050Z,20.60
2022-11-20T07:28:39.429Z,21.65
2022-11-20T07:31:07.884Z,21.58
2022-11-20T07:33:34.712Z,22.83
2022-11-20T07:36:01.863Z,19.92
2022-11-20T07:38:29.194Z,23.75
2022-11-20T07:40:57.430Z,26.13
2022-11-20T07:43:25.099Z,22.25
2022-11-20T07:45:52.211Z,23.17
2022-11-20T07:48:18.899Z,20.95
2022-11-20T07:50:45.639Z,23.52
2022-11-20T07:53:13.769Z,27.40
2022-11-20T07:55:40.639Z,22.25
2022-11-20T07:58:07.311Z,23.95
2022-11-20T08:00:34.095Z,25.50
2022-11-20T08:03:04.627Z,23.98
2022-11-20T08:05:31.523Z,28.30
2022-11-20T08:07:58.268Z,26.00
2022-11-20T08:10:25.128Z,25.88
2022-11-20T08:13:12.431Z,23.83
2022-11-20T08:15:40.829Z,25.30
2022-11-20T08:18:30.137Z,29.25
2022-11-20T08:20:55.524Z,25.55
2022-11-20T08:23:24.275Z,23.52
2022-11-20T08:25:52.121Z,24.33
2022-11-20T08:28:21.769Z,29.92
2022-11-20T08:30:49.807Z,23.83
2022-11-20T08:33:18.343Z,26.85
2022-11-20T08:35:45.232Z,27.67
2022-11-20T08:38:12.027Z,28.92
2022-11-20T08:40:38.680Z,27.52
2022-11-20T08:43:05.427Z,29.88
2022-11-20T08:45:34.686Z,31.58
2022-11-20T08:48:03.569Z,35.08
2022-11-20T08:50:32.718Z,28.15
2022-11-20T08:53:06.478Z,26.92
2022-11-20T08:55:33.587Z,33.78
2022-11-20T08:58:05.249Z,33.08
2022-11-20T09:00:33.418Z,34.83
2022-11-20T09:03:01.902Z,32.75
2022-11-20T09:05:28.863Z,33.58
2022-11-20T09:07:59.347Z,35.35
2022-11-20T09:10:29.177Z,37.00
2022-11-20T09:12:56.428Z,34.65
2022-11-20T09:15:24.364Z,44.60
2022-11-20T09:17:59.213Z,38.03
2022-11-20T09:20:27.435Z,37.40
2022-11-20T09:22:54.391Z,41.80
2022-11-20T09:25:21.447Z,39.97
2022-11-20T09:27:48.393Z,36.38
2022-11-20T09:30:16.213Z,33.30
2022-11-20T09:32:43.852Z,40.50
2022-11-20T09:35:11.739Z,38.13
2022-11-20T09:37:39.021Z,37.45
2022-11-20T09:40:06.336Z,37.55
2022-11-20T09:42:46.207Z,33.92
2022-11-20T09:45:36.340Z,39.08
2022-11-20T09:48:19.023Z,35.28
2022-11-20T09:51:34.212Z,42.03
2022-11-20T09:54:21.830Z,37.08
2022-11-20T09:56:57.544Z,39.70
2022-11-20T09:59:32.988Z,40.63
2022-11-20T10:02:01.679Z,37.88
2022-11-20T10:04:34.590Z,37.72
2022-11-20T10:07:51.560Z,35.75
2022-11-20T10:10:30.229Z,39.08
2022-11-20T10:13:11.812Z,37.63
2022-11-20T10:15:44.463Z,48.78
2022-11-20T10:18:23.187Z,35.70
2022-11-20T10:20:56.667Z,35.72
2022-11-20T10:23:43.817Z,29.98
2022-11-20T10:26:45.931Z,32.92
2022-11-20T10:29:19.272Z,32.97
2022-11-20T10:31:52.180Z,31.77
2022-11-20T10:34:43.785Z,39.80
2022-11-20T10:37:16.240Z,34.50
2022-11-20T10:39:46.719Z,34.60
2022-11-20T10:42:18.796Z,30.33
2022-11-20T10:45:05.723Z,31.30
2022-11-20T10:47:33.438Z,31.67
2022-11-20T10:50:07.279Z,28.25
2022-11-20T10:52:39.291Z,27.10
2022-11-20T10:55:30.481Z,29.88
2022-11-20T10:58:12.557Z,26.80
2022-11-20T11:03:29.943Z,26.98
2022-11-20T11:06:05.111Z,27.50
2022-11-20T11:08:38.767Z,29.00
2022-11-20T11:11:23.941Z,26.50
2022-11-20T11:13:51.576Z,25.70
2022-11-20T11:16:26.461Z,25.60
2022-11-20T11:19:04.556Z,27.50
2022-11-20T11:21:31.669Z,25.80
2022-11-20T11:24:19.721Z,25.88
2022-11-20T11:27:17.559Z,23.60
2022-11-20T11:29:45.329Z,27.23
2022-11-20T11:32:19.365Z,22.55
2022-11-20T11:34:46.264Z,24.65
2022-11-20T11:37:22.562Z,23.67
2022-11-20T11:40:03.965Z,26.50
2022-11-20T11:42:42.577Z,23.23
2022-11-20T11:45:18.284Z,23.08
2022-11-20T11:47:49.232Z,23.13
2022-11-20T11:50:19.203Z,26.43
2022-11-20T11:53:04.167Z,30.83
2022-11-20T11:55:45.983Z,25.70
2022-11-20T11:58:30.907Z,28.58
2022-11-20T12:01:04.751Z,22.42
2022-11-20T12:03:44.867Z,24.05
2022-11-20T12:06:15.119Z,24.90
2022-11-20T12:09:10.212Z,26.42
2022-11-20T12:11:59.955Z,22.38
2022-11-20T12:14:50.785Z,23.92
2022-11-20T12:17:19.112Z,22.55
2022-11-20T12:19:45.947Z,21.63
2022-11-20T12:22:18.363Z,23.58
2022-11-20T12:25:03.313Z,23.35
2022-11-20T12:27:53.133Z,23.05
2022-11-20T12:30:21.344Z,20.65
2022-11-20T12:33:18.415Z,21.45
2022-11-20T12:35:57.154Z,20.08
2022-11-20T12:38:51.407Z,21.17
2022-11-20T12:41:42.409Z,23.38
2022-11-20T12:44:33.819Z,22.75
2022-11-20T12:47:26.688Z,23.50
2022-11-20T12:51:08.023Z,22.05
2022-11-20T12:53:48.209Z,22.15
2022-11-20T12:56:33.269Z,23.40
2022-11-20T12:59:13.154Z,22.80
2022-11-20T13:02:18.253Z,25.30
2022-11-20T13:05:04.711Z,34.05
2022-11-20T13:07:32.851Z,24.67
2022-11-20T13:10:01.228Z,32.53
2022-11-20T13:12:35.401Z,25.98
2022-11-20T13:15:17.124Z,22.58
2022-11-20T13:17:52.985Z,24.42
2022-11-20T13:20:20.501Z,21.58
2022-11-20T13:22:56.026Z,23.70
2022-11-20T13:25:27.000Z,26.88
2022-11-20T13:27:54.472Z,21.95
2022-11-20T13:30:23.798Z,23.23
2022-11-20T13:33:24.144Z,21.83
2022-11-20T13:36:01.191Z,21.23
2022-11-20T13:38:33.862Z,22.60
2022-11-20T13:41:23.198Z,20.05
2022-11-20T13:43:49.985Z,21.92
2022-11-20T13:46:16.838Z,24.75
2022-11-20T13:48:47.975Z,19.58
2022-11-20T13:51:35.994Z,19.98
2022-11-20T13:54:19.099Z,20.90
2022-11-20T13:56:54.918Z,21.92
2022-11-20T14:00:18.975Z,26.02
2022-11-20T14:03:02.037Z,24.00
2022-11-20T14:05:31.827Z,22.88
2022-11-20T14:07:59.079Z,22.92
2022-11-20T14:10:32.120Z,23.17
2022-11-20T14:12:59.897Z,22.42
2022-11-20T14:15:37.341Z,22.33
2022-11-20T14:18:15.877Z,23.83
2022-11-20T14:20:44.098Z,24.33
2022-11-20T14:23:11.913Z,20.58
2022-11-20T14:25:42.930Z,21.80
2022-11-20T14:28:24.570Z,21.27
2022-11-20T14:30:51.380Z,19.90
2022-11-20T14:33:18.384Z,21.60
2022-11-20T14:35:50.399Z,22.55
2022-11-20T14:38:21.196Z,22.30
2022-11-20T14:40:47.980Z,22.58
2022-11-20T14:43:29.412Z,20.58
2022-11-20T14:46:01.552Z,21.88
2022-11-20T14:48:38.020Z,22.20
2022-11-20T14:51:05.107Z,22.92
2022-11-20T14:53:31.763Z,21.05
2022-11-20T14:56:00.820Z,25.70
2022-11-20T14:58:34.301Z,23.80
2022-11-20T15:01:04.508Z,23.92
2022-11-20T15:03:39.585Z,23.25
2022-11-20T15:06:12.977Z,25.83
2022-11-20T15:08:39.657Z,23.98
2022-11-20T15:11:24.752Z,24.23
2022-11-20T15:13:51.554Z,22.08
2022-11-20T15:16:23.119Z,23.20
2022-11-20T15:18:50.032Z,25.48
2022-11-20T15:21:19.376Z,26.33
2022-11-20T15:23:46.125Z,22.63
2022-11-20T15:26:19.917Z,26.00
2022-11-20T15:28:48.865Z,27.20
2022-11-20T15:31:19.285Z,24.60
2022-11-20T15:33:47.471Z,24.08
2022-11-20T15:36:14.211Z,26.00
2022-11-20T15:38:41.322Z,22.80
2022-11-20T15:41:08.652Z,23.77
2022-11-20T15:43:35.669Z,23.80
2022-11-20T15:46:10.294Z,25.38
2022-11-20T15:48:49.045Z,29.63
2022-11-20T15:51:38.325Z,24.42
2022-11-20T15:54:15.635Z,24.98
2022-11-20T15:56:42.547Z,23.33
2022-11-20T15:59:09.230Z,26.40
2022-11-20T16:01:36.376Z,26.13
2022-11-20T16:04:03.234Z,27.48
2022-11-20T16:06:29.924Z,26.40
2022-11-20T16:08:56.630Z,25.35
2022-11-20T16:11:23.305Z,23.95
2022-11-20T16:14:08.649Z,26.67
2022-11-20T16:16:37.988Z,27.33
2022-11-20T16:19:05.216Z,24.48
2022-11-20T16:21:32.459Z,24.25
2022-11-20T16:24:05.669Z,26.25
2022-11-20T16:26:33.211Z,27.80
2022-11-20T16:29:01.192Z,25.10
2022-11-20T16:31:27.934Z,42.90
2022-11-20T16:33:57.725Z,27.98
2022-11-20T16:36:26.806Z,25.75
2022-11-20T16:38:55.420Z,25.33
2022-11-20T16:41:23.218Z,25.55
2022-11-20T16:43:52.892Z,30.02
2022-11-20T16:46:22.376Z,26.63
2022-11-20T16:49:00.487Z,26.38
2022-11-20T16:51:28.969Z,28.80
2022-11-20T16:53:56.355Z,23.35
2022-11-20T16:56:26.114Z,27.80
2022-11-20T16:58:55.569Z,25.00
2022-11-20T17:01:24.962Z,28.52
2022-11-20T17:03:56.247Z,26.45
2022-11-20T17:06:25.754Z,23.45
2022-11-20T17:08:54.831Z,24.38
2022-11-20T17:11:22.111Z,26.50
2022-11-20T17:13:49.623Z,25.10
2022-11-20T17:16:21.736Z,26.00
2022-11-20T17:18:51.804Z,25.88
2022-11-20T17:21:19.828Z,23.40
2022-11-20T17:23:47.555Z,24.95
2022-11-20T17:26:17.962Z,22.98
2022-11-20T17:28:46.636Z,23.60
2022-11-20T17:31:16.204Z,27.60
2022-11-20T17:33:44.669Z,27.77
2022-11-20T17:36:13.354Z,26.58
2022-11-20T17:38:40.189Z,31.38
2022-11-20T17:41:10.128Z,24.95
2022-11-20T17:43:37.443Z,26.02
2022-11-20T17:46:13.539Z,23.88
2022-11-20T17:48:44.313Z,27.83
2022-11-20T17:51:16.342Z,24.27
2022-11-20T17:53:45.687Z,28.45
2022-11-20T17:56:31.475Z,23.02
2022-11-20T17:58:58.614Z,23.27
2022-11-20T18:01:25.463Z,24.38
2022-11-20T18:03:52.396Z,25.98
2022-11-20T18:06:23.710Z,27.02
2022-11-20T18:08:51.448Z,27.48
2022-11-20T18:11:24.507Z,23.15
2022-11-20T18:14:12.603Z,28.73
2022-11-20T18:16:44.945Z,29.08
2022-11-20T18:19:14.387Z,29.05
2022-11-20T18:21:42.011Z,23.60
2022-11-20T18:24:09.613Z,26.10
2022-11-20T18:26:42.806Z,27.17
2022-11-20T18:29:11.866Z,29.92
2022-11-20T18:31:38.752Z,30.73
2022-11-20T18:34:06.781Z,25.17
2022-11-20T18:36:33.644Z,27.23
2022-11-20T18:39:01.670Z,24.95
2022-11-20T18:41:49.386Z,30.85
2022-11-20T18:44:39.380Z,29.45
2022-11-20T18:47:14.041Z,31.98
2022-11-20T18:49:42.651Z,36.17
2022-11-20T18:52:09.388Z,34.63
2022-11-20T18:54:37.028Z,33.70
2022-11-20T18:57:04.928Z,34.67
2022-11-20T18:59:32.142Z,33.85
2022-11-20T19:01:59.051Z,29.60
2022-11-20T19:04:26.040Z,33.38
2022-11-20T19:06:56.237Z,31.58
2022-11-20T19:09:24.172Z,28.77
2022-11-20T19:11:52.252Z,29.05
2022-11-20T19:14:19.001Z,28.45
2022-11-20T19:16:46.321Z,30.42
2022-11-20T19:19:12.993Z,26.17
2022-11-20T19:21:41.018Z,26.10
2022-11-20T19:24:07.892Z,28.35
2022-11-20T19:26:36.534Z,26.73
2022-11-20T19:29:06.758Z,26.05
2022-11-20T19:31:33.904Z,24.40
2022-11-20T19:34:12.229Z,25.65
2022-11-20T19:36:56.761Z,22.17
2022-11-20T19:39:25.281Z,21.00
2022-11-20T19:41:55.177Z,20.85
2022-11-20T19:44:22.020Z,21.88
2022-11-20T19:46:48.737Z,23.42
2022-11-20T19:49:15.474Z,18.83
2022-11-20T19:51:47.926Z,20.45
2022-11-20T19:54:15.050Z,19.90
2022-11-20T19:56:41.757Z,21.58
2022-11-20T19:59:08.464Z,22.83
2022-11-20T20:01:35.613Z,22.63
2022-11-20T20:04:05.536Z,23.38
2022-11-20T20:06:35.100Z,23.75
2022-11-20T20:09:08.215Z,20.90
2022-11-20T20:11:35.872Z,22.90
2022-11-20T20:14:08.605Z,19.98
2022-11-20T20:16:35.561Z,21.90
2022-11-20T20:19:03.952Z,20.45
2022-11-20T20:21:32.743Z,22.30
2022-11-20T20:24:00.035Z,21.00
2022-11-20T20:26:28.738Z,22.08
2022-11-20T20:28:56.048Z,20.23
2022-11-20T20:31:25.039Z,23.17
2022-11-20T20:33:51.908Z,22.08
2022-11-20T20:36:20.509Z,24.63
2022-11-20T20:38:47.826Z,21.23
2022-11-20T20:41:18.686Z,23.35
2022-11-20T20:44:04.095Z,24.23
2022-11-20T20:46:31.030Z,22.65
2022-11-20T20:48:57.912Z,22.58
2022-11-20T20:51:24.708Z,22.50
2022-11-20T20:53:51.509Z,23.20
2022-11-20T20:56:18.808Z,25.67
2022-11-20T20:58:45.493Z,27.85
2022-11-20T21:01:15.602Z,24.88
2022-11-20T21:03:45.806Z,23.95
2022-11-20T21:06:12.857Z,26.20
2022-11-20T21:08:41.077Z,29.55
2022-11-20T21:11:12.128Z,26.80
2022-11-20T21:13:40.508Z,27.67
2022-11-20T21:16:07.809Z,27.30
2022-11-20T21:18:35.252Z,28.38
2022-11-20T21:21:24.462Z,31.25
2022-11-20T21:23:53.333Z,25.52
2022-11-20T21:26:20.836Z,29.45
2022-11-20T21:28:48.156Z,28.80
2022-11-20T21:31:24.885Z,28.00
2022-11-20T21:33:54.112Z,30.45
2022-11-20T21:36:23.243Z,29.05
2022-11-20T21:38:52.193Z,28.92
2022-11-20T21:41:18.952Z,31.13
2022-11-20T21:43:48.951Z,28.23
2022-11-20T21:46:21.604Z,23.95
2022-11-20T21:48:48.434Z,28.98
2022-11-20T21:51:20.819Z,25.35
2022-11-20T21:53:49.096Z,26.33
2022-11-20T21:56:20.617Z,25.48
2022-11-20T21:58:48.639Z,25.15
2022-11-20T22:01:18.701Z,26.33
2022-11-20T22:03:54.065Z,25.85
2022-11-20T22:06:21.563Z,27.38
2022-11-20T22:08:49.032Z,27.75
2022-11-20T22:11:19.220Z,28.88
2022-11-20T22:14:05.047Z,25.92
2022-11-20T22:16:34.062Z,26.67
2022-11-20T22:19:00.938Z,27.27
2022-11-20T22:21:29.492Z,27.95
2022-11-20T22:23:56.704Z,25.42
2022-11-20T22:26:28.911Z,27.63
2022-11-20T22:28:57.558Z,27.40
2022-11-20T22:31:26.774Z,29.33
2022-11-20T22:33:53.537Z,28.50
2022-11-20T22:36:25.817Z,27.67
2022-11-20T22:38:52.804Z,30.17
2022-11-20T22:41:22.034Z,28.13
2022-11-20T22:43:54.287Z,30.45
2022-11-20T22:46:21.042Z,27.15
2022-11-20T22:49:09.844Z,31.52
2022-11-20T22:51:41.308Z,28.17
2022-11-20T22:54:10.675Z,30.40
2022-11-20T22:56:37.328Z,29.80
2022-11-20T22:59:04.572Z,28.65
2022-11-20T23:01:36.730Z,33.22
2022-11-20T23:04:09.731Z,29.55
2022-11-20T23:06:36.459Z,31.83
2022-11-20T23:09:05.202Z,27.40
2022-11-20T23:11:32.812Z,32.53
2022-11-20T23:14:02.307Z,28.77
2022-11-20T23:16:30.845Z,29.02
2022-11-20T23:19:15.858Z,28.95
2022-11-20T23:21:42.912Z,27.95
2022-11-20T23:24:10.080Z,25.70
2022-11-20T23:26:39.192Z,25.70
2022-11-20T23:29:06.793Z,27.67
2022-11-20T23:31:35.209Z,28.60
2022-11-20T23:34:02.332Z,27.10
2022-11-20T23:36:29.182Z,25.80
2022-11-20T23:38:55.950Z,27.85
2022-11-20T23:41:22.690Z,26.80
2022-11-20T23:43:49.500Z,28.60
2022-11-20T23:46:16.992Z,29.13
2022-11-20T23:48:45.424Z,28.38
2022-11-20T23:51:12.995Z,27.70
2022-11-20T23:53:39.978Z,25.20
2022-11-20T23:56:06.805Z,30.35
2022-11-20T23:58:38.530Z,26.83
